createdAt,value
2022-10-21T00:01:11.747Z,101220.80
2022-10-21T00:03:41.457Z,101217.40
2022-10-21T00:06:11.170Z,101223.40
2022-10-21T00:08:40.540Z,101214.40
2022-10-21T00:11:10.976Z,101208.80
2022-10-21T00:13:40.302Z,101211.00
2022-10-21T00:16:18.261Z,101212.00
2022-10-21T00:18:48.895Z,101204.80
2022-10-21T00:21:21.620Z,101196.80
2022-10-21T00:23:50.526Z,101196.00
2022-10-21T00:26:20.099Z,101192.80
2022-10-21T00:28:49.317Z,101185.20
2022-10-21T00:31:17.701Z,101186.00
2022-10-21T00:33:46.178Z,101175.80
2022-10-21T00:36:15.713Z,101181.40
2022-10-21T00:38:48.646Z,101175.20
2022-10-21T00:41:20.231Z,101174.40
2022-10-21T00:44:04.609Z,101175.60
2022-10-21T00:46:47.912Z,101165.20
2022-10-21T00:49:42.505Z,101170.40
2022-10-21T00:52:17.957Z,101170.80
2022-10-21T00:54:50.159Z,101166.80
2022-10-21T00:57:21.023Z,101158.80
2022-10-21T00:59:57.863Z,101156.80
2022-10-21T01:02:28.015Z,101156.60
2022-10-21T01:05:01.256Z,101158.60
2022-10-21T01:07:30.033Z,101161.80
2022-10-21T01:09:58.727Z,101154.80
2022-10-21T01:12:54.551Z,101152.40
2022-10-21T01:15:46.383Z,101153.80
2022-10-21T01:18:35.853Z,101150.20
2022-10-21T01:21:36.694Z,101144.40
2022-10-21T01:24:32.316Z,101143.00
2022-10-21T01:27:25.370Z,101136.00
2022-10-21T01:30:11.344Z,101133.00
2022-10-21T01:35:55.329Z,101132.60
2022-10-21T01:39:11.535Z,101124.60
2022-10-21T01:41:48.791Z,101123.40
2022-10-21T01:44:30.102Z,101116.20
2022-10-21T01:47:09.847Z,101109.00
2022-10-21T01:50:05.570Z,101108.00
2022-10-21T01:52:34.255Z,101103.40
2022-10-21T01:55:13.181Z,101095.40
2022-10-21T01:57:49.549Z,101089.20
2022-10-21T02:00:18.513Z,101077.60
2022-10-21T02:02:49.913Z,101081.00
2022-10-21T02:05:23.458Z,101076.20
2022-10-21T02:07:52.181Z,101073.20
2022-10-21T02:10:21.891Z,101077.60
2022-10-21T02:12:53.324Z,101068.80
2022-10-21T02:15:24.037Z,101051.80
2022-10-21T02:17:59.270Z,101058.00
2022-10-21T02:20:30.134Z,101064.60
2022-10-21T02:22:59.457Z,101072.20
2022-10-21T02:25:34.502Z,101075.40
2022-10-21T02:28:04.174Z,101082.20
2022-10-21T02:30:44.265Z,101090.80
2022-10-21T02:33:24.419Z,101100.20
2022-10-21T02:36:16.657Z,101098.00
2022-10-21T02:38:54.457Z,101101.80
2022-10-21T02:41:26.362Z,101087.00
2022-10-21T02:44:01.310Z,101072.00
2022-10-21T02:46:40.364Z,101067.80
2022-10-21T02:49:10.029Z,101071.80
2022-10-21T02:51:40.579Z,101062.80
2022-10-21T02:54:09.007Z,101060.20
2022-10-21T02:56:37.590Z,101053.40
2022-10-21T02:59:06.378Z,101053.00
2022-10-21T03:01:34.863Z,101044.20
2022-10-21T03:04:03.854Z,101045.00
2022-10-21T03:06:32.334Z,101043.80
2022-10-21T03:09:00.865Z,101029.80
2022-10-21T03:11:29.811Z,101025.40
2022-10-21T03:13:58.701Z,101021.00
2022-10-21T03:16:27.184Z,101012.40
2022-10-21T03:18:55.972Z,101004.60
2022-10-21T03:21:24.357Z,100989.40
2022-10-21T03:23:53.138Z,100984.40
2022-10-21T03:26:22.341Z,100987.00
2022-10-21T03:28:51.127Z,100976.80
2022-10-21T03:31:19.915Z,100966.60
2022-10-21T03:33:48.499Z,100958.60
2022-10-21T03:36:16.984Z,100950.40
2022-10-21T03:38:45.975Z,100957.20
2022-10-21T03:41:14.867Z,100959.20
2022-10-21T03:43:43.861Z,100957.80
2022-10-21T03:46:12.345Z,100964.00
2022-10-21T03:48:41.235Z,100966.80
2022-10-21T03:51:09.922Z,100974.00
2022-10-21T03:53:43.254Z,100978.80
2022-10-21T03:56:13.644Z,100979.20
2022-10-21T03:58:42.451Z,100972.20
2022-10-21T04:01:13.643Z,100970.40
2022-10-21T04:03:42.571Z,100972.20
2022-10-21T04:06:11.463Z,100967.40
2022-10-21T04:08:40.008Z,100959.00
2022-10-21T04:11:08.836Z,100963.00
2022-10-21T04:13:37.626Z,100959.20
2022-10-21T04:16:10.699Z,100966.00
2022-10-21T04:18:39.301Z,100961.00
2022-10-21T04:21:09.137Z,100962.00
2022-10-21T04:23:37.903Z,100956.00
2022-10-21T04:26:08.244Z,100951.80
2022-10-21T04:28:37.326Z,100952.00
2022-10-21T04:31:05.909Z,100955.00
2022-10-21T04:33:34.495Z,100950.60
2022-10-21T04:36:02.992Z,100954.60
2022-10-21T04:38:32.278Z,100947.60
2022-10-21T04:41:03.271Z,100939.80
2022-10-21T04:43:32.006Z,100938.80
2022-10-21T04:46:00.390Z,100936.00
2022-10-21T04:48:28.868Z,100940.60
2022-10-21T04:50:57.348Z,100943.20
2022-10-21T04:53:25.728Z,100941.40
2022-10-21T04:55:54.997Z,100926.00
2022-10-21T04:58:23.615Z,100912.20
2022-10-21T05:00:52.605Z,100901.80
2022-10-21T05:03:21.499Z,100888.60
2022-10-21T05:05:52.372Z,100883.20
2022-10-21T05:08:21.638Z,100867.00
2022-10-21T05:10:56.777Z,100862.40
2022-10-21T05:13:25.361Z,100872.20
2022-10-21T05:15:53.947Z,100879.80
2022-10-21T05:18:22.325Z,100874.80
2022-10-21T05:20:53.475Z,100870.80
2022-10-21T05:23:22.873Z,100862.20
2022-10-21T05:25:54.707Z,100838.80
2022-10-21T05:28:23.218Z,100821.00
2022-10-21T05:30:53.229Z,100844.00
2022-10-21T05:33:21.723Z,100854.80
2022-10-21T05:36:08.799Z,100862.60
2022-10-21T05:38:37.217Z,100865.40
2022-10-21T05:41:06.311Z,100866.20
2022-10-21T05:43:34.793Z,100855.40
2022-10-21T05:46:03.787Z,100860.40
2022-10-21T05:48:32.171Z,100856.60
2022-10-21T05:51:00.752Z,100849.00
2022-10-21T05:53:29.438Z,100843.40
2022-10-21T05:56:03.359Z,100848.80
2022-10-21T05:58:33.960Z,100859.60
2022-10-21T06:01:02.618Z,100846.20
2022-10-21T06:03:35.285Z,100835.40
2022-10-21T06:06:07.593Z,100833.60
2022-10-21T06:08:39.383Z,100828.80
2022-10-21T06:11:17.035Z,100831.40
2022-10-21T06:13:47.552Z,100829.80
2022-10-21T06:16:17.296Z,100826.20
2022-10-21T06:18:45.699Z,100828.60
2022-10-21T06:21:14.794Z,100834.60
2022-10-21T06:23:43.171Z,100835.00
2022-10-21T06:26:15.953Z,100844.00
2022-10-21T06:28:45.383Z,100857.20
2022-10-21T06:31:17.671Z,100855.60
2022-10-21T06:33:46.215Z,100858.40
2022-10-21T06:36:15.340Z,100854.20
2022-10-21T06:38:44.681Z,100852.40
2022-10-21T06:41:15.371Z,100852.40
2022-10-21T06:43:44.543Z,100851.80
2022-10-21T06:46:15.848Z,100852.20
2022-10-21T06:48:44.274Z,100849.60
2022-10-21T06:51:22.637Z,100854.60
2022-10-21T06:53:57.465Z,100851.80
2022-10-21T06:56:28.174Z,100846.40
2022-10-21T06:58:58.592Z,100850.00
2022-10-21T07:01:40.835Z,100838.80
2022-10-21T07:04:11.039Z,100833.20
2022-10-21T07:06:40.000Z,100832.00
2022-10-21T07:09:10.157Z,100829.00
2022-10-21T07:11:38.704Z,100828.60
2022-10-21T07:14:07.831Z,100837.80
2022-10-21T07:16:37.965Z,100828.80
2022-10-21T07:19:07.125Z,100831.80
2022-10-21T07:21:35.602Z,100814.60
2022-10-21T07:24:04.288Z,100817.40
2022-10-21T07:26:34.714Z,100819.40
2022-10-21T07:29:04.836Z,100818.60
2022-10-21T07:31:37.399Z,100823.00
2022-10-21T07:34:08.406Z,100828.20
2022-10-21T07:36:41.650Z,100828.80
2022-10-21T07:39:14.306Z,100839.00
2022-10-21T07:41:56.217Z,100836.60
2022-10-21T07:44:26.803Z,100841.40
2022-10-21T07:46:55.780Z,100833.80
2022-10-21T07:49:24.720Z,100839.80
2022-10-21T07:51:54.149Z,100834.60
2022-10-21T07:54:24.236Z,100835.20
2022-10-21T07:56:53.702Z,100833.20
2022-10-21T07:59:23.587Z,100840.60
2022-10-21T08:01:53.505Z,100833.60
2022-10-21T08:04:25.284Z,100827.00
2022-10-21T08:06:53.771Z,100823.60
2022-10-21T08:09:22.635Z,100816.60
2022-10-21T08:11:51.015Z,100812.80
2022-10-21T08:14:19.499Z,100812.20
2022-10-21T08:16:53.389Z,100799.80
2022-10-21T08:19:27.654Z,100803.80
2022-10-21T08:21:57.611Z,100799.20
2022-10-21T08:24:26.123Z,100794.00
2022-10-21T08:26:55.526Z,100799.20
2022-10-21T08:29:24.733Z,100798.60
2022-10-21T08:31:53.209Z,100804.00
2022-10-21T08:34:21.792Z,100797.60
2022-10-21T08:36:50.376Z,100788.40
2022-10-21T08:39:18.858Z,100780.00
2022-10-21T08:42:06.599Z,100769.60
2022-10-21T08:44:34.975Z,100771.20
2022-10-21T08:47:33.974Z,100762.20
2022-10-21T08:50:13.410Z,100755.80
2022-10-21T08:52:46.500Z,100757.40
2022-10-21T08:55:44.269Z,100744.80
2022-10-21T08:58:24.507Z,100731.60
2022-10-21T09:01:03.861Z,100727.80
2022-10-21T09:03:56.307Z,100718.60
2022-10-21T09:06:27.661Z,100714.80
2022-10-21T09:09:17.924Z,100702.60
2022-10-21T09:12:16.950Z,100699.40
2022-10-21T09:15:16.358Z,100700.40
2022-10-21T09:18:15.865Z,100696.40
2022-10-21T09:21:22.851Z,100688.80
2022-10-21T09:24:07.921Z,100691.40
2022-10-21T09:26:40.191Z,100684.40
2022-10-21T09:29:37.344Z,100680.80
2022-10-21T09:32:17.520Z,100679.60
2022-10-21T09:35:03.289Z,100689.00
2022-10-21T09:37:47.134Z,100689.60
2022-10-21T09:40:22.421Z,100686.60
2022-10-21T09:42:56.085Z,100688.80
2022-10-21T09:45:42.169Z,100696.20
2022-10-21T09:48:19.560Z,100695.00
2022-10-21T09:51:18.763Z,100696.00
2022-10-21T09:53:58.611Z,100686.60
2022-10-21T09:56:41.224Z,100686.60
2022-10-21T09:59:12.076Z,100670.00
2022-10-21T10:01:43.435Z,100670.80
2022-10-21T10:04:34.216Z,100677.40
2022-10-21T10:07:25.534Z,100682.00
2022-10-21T10:09:54.119Z,100682.20
2022-10-21T10:12:26.801Z,100680.00
2022-10-21T10:14:56.005Z,100670.60
2022-10-21T10:17:24.379Z,100675.00
2022-10-21T10:20:07.708Z,100675.40
2022-10-21T10:22:43.502Z,100666.60
2022-10-21T10:25:15.014Z,100653.60
2022-10-21T10:28:19.548Z,100652.20
2022-10-21T10:30:52.829Z,100650.00
2022-10-21T10:33:26.083Z,100646.20
2022-10-21T10:35:57.816Z,100658.00
2022-10-21T10:38:34.306Z,100663.40
2022-10-21T10:41:15.640Z,100667.80
2022-10-21T10:43:56.004Z,100670.00
2022-10-21T10:46:29.605Z,100667.00
2022-10-21T10:49:13.036Z,100667.60
2022-10-21T10:51:45.615Z,100669.40
2022-10-21T10:54:28.229Z,100657.60
2022-10-21T10:57:44.421Z,100649.80
2022-10-21T11:00:22.311Z,100636.80
2022-10-21T11:03:14.775Z,100628.40
2022-10-21T11:05:51.366Z,100608.80
2022-10-21T11:08:35.336Z,100609.00
2022-10-21T11:11:13.408Z,100610.20
2022-10-21T11:13:42.403Z,100605.00
2022-10-21T11:16:25.418Z,100596.00
2022-10-21T11:19:26.648Z,100594.00
2022-10-21T11:22:12.992Z,100590.60
2022-10-21T11:24:54.025Z,100587.60
2022-10-21T11:28:01.441Z,100584.40
2022-10-21T11:31:26.650Z,100572.40
2022-10-21T11:34:22.783Z,100574.00
2022-10-21T11:37:28.948Z,100576.00
2022-10-21T11:40:22.006Z,100574.40
2022-10-21T11:42:52.815Z,100582.00
2022-10-21T11:45:58.393Z,100570.60
2022-10-21T11:49:18.053Z,100562.40
2022-10-21T11:52:21.067Z,100567.60
2022-10-21T11:55:43.822Z,100575.20
2022-10-21T11:59:12.329Z,100580.20
2022-10-21T12:02:17.613Z,100582.20
2022-10-21T12:05:47.580Z,100576.60
2022-10-21T12:08:41.200Z,100574.40
2022-10-21T12:11:19.877Z,100566.80
2022-10-21T12:14:09.757Z,100561.00
2022-10-21T12:16:38.246Z,100570.40
2022-10-21T12:19:13.581Z,100571.60
2022-10-21T12:21:45.809Z,100574.00
2022-10-21T12:24:34.200Z,100576.80
2022-10-21T12:27:35.975Z,100580.00
2022-10-21T12:30:23.527Z,100576.00
2022-10-21T12:33:18.493Z,100578.20
2022-10-21T12:36:11.554Z,100588.40
2022-10-21T12:38:54.476Z,100590.40
2022-10-21T12:41:38.220Z,100590.60
2022-10-21T12:44:16.018Z,100595.80
2022-10-21T12:47:02.519Z,100594.80
2022-10-21T12:49:35.977Z,100599.00
2022-10-21T12:52:39.174Z,100600.40
2022-10-21T12:55:21.115Z,100609.20
2022-10-21T12:58:01.882Z,100600.00
2022-10-21T13:00:30.671Z,100603.60
2022-10-21T13:03:12.874Z,100604.20
2022-10-21T13:05:41.254Z,100601.80
2022-10-21T13:08:23.566Z,100599.00
2022-10-21T13:11:06.994Z,100601.60
2022-10-21T13:13:40.291Z,100599.00
2022-10-21T13:16:21.164Z,100601.40
2022-10-21T13:19:17.495Z,100603.60
2022-10-21T13:21:48.695Z,100603.00
2022-10-21T13:24:26.236Z,100597.60
2022-10-21T13:27:28.739Z,100596.60
2022-10-21T13:29:58.835Z,100592.00
2022-10-21T13:32:39.286Z,100587.60
2022-10-21T13:35:19.575Z,100581.00
2022-10-21T13:38:01.455Z,100580.40
2022-10-21T13:40:49.189Z,100580.20
2022-10-21T13:43:50.131Z,100587.00
2022-10-21T13:46:21.376Z,100593.80
2022-10-21T13:48:50.052Z,100591.80
2022-10-21T13:51:26.195Z,100592.20
2022-10-21T13:53:59.534Z,100589.80
2022-10-21T13:56:35.020Z,100588.60
2022-10-21T13:59:06.539Z,100588.00
2022-10-21T14:01:54.644Z,100581.00
2022-10-21T14:04:32.381Z,100579.80
2022-10-21T14:07:04.977Z,100584.80
2022-10-21T14:09:45.469Z,100581.80
2022-10-21T14:12:40.218Z,100577.40
2022-10-21T14:15:22.100Z,100580.60
2022-10-21T14:17:58.606Z,100577.60
2022-10-21T14:20:38.499Z,100577.80
2022-10-21T14:23:16.010Z,100577.60
2022-10-21T14:25:49.209Z,100575.00
2022-10-21T14:28:19.652Z,100579.20
2022-10-21T14:30:50.059Z,100578.80
2022-10-21T14:33:25.175Z,100578.20
2022-10-21T14:36:25.183Z,100577.40
2022-10-21T14:39:08.651Z,100582.00
2022-10-21T14:41:45.472Z,100582.60
2022-10-21T14:44:20.467Z,100579.80
2022-10-21T14:46:54.061Z,100585.80
2022-10-21T14:49:47.232Z,100590.00
2022-10-21T14:52:21.688Z,100583.60
2022-10-21T14:54:58.533Z,100581.40
2022-10-21T14:57:41.255Z,100572.80
2022-10-21T15:00:41.943Z,100572.00
2022-10-21T15:03:12.379Z,100570.80
2022-10-21T15:05:48.586Z,100572.40
2022-10-21T15:08:20.954Z,100576.00
2022-10-21T15:10:59.363Z,100569.60
2022-10-21T15:13:28.665Z,100566.80
2022-10-21T15:15:59.870Z,100565.20
2022-10-21T15:18:44.170Z,100569.40
2022-10-21T15:21:40.295Z,100554.00
2022-10-21T15:24:19.220Z,100552.00
2022-10-21T15:26:50.778Z,100548.00
2022-10-21T15:29:22.019Z,100548.60
2022-10-21T15:31:53.500Z,100545.20
2022-10-21T15:34:23.004Z,100542.60
2022-10-21T15:36:52.275Z,100541.60
2022-10-21T15:39:21.176Z,100540.60
2022-10-21T15:41:55.132Z,100534.20
2022-10-21T15:44:32.173Z,100534.40
2022-10-21T15:47:08.396Z,100534.20
2022-10-21T15:49:43.359Z,100532.40
2022-10-21T15:52:12.454Z,100528.20
2022-10-21T15:54:42.329Z,100528.20
2022-10-21T15:57:19.808Z,100527.00
2022-10-21T15:59:49.066Z,100521.00
2022-10-21T16:02:17.996Z,100529.20
2022-10-21T16:04:46.857Z,100527.60
2022-10-21T16:07:23.877Z,100524.60
2022-10-21T16:09:52.309Z,100525.60
2022-10-21T16:12:22.523Z,100530.40
2022-10-21T16:14:51.705Z,100530.20
2022-10-21T16:17:21.493Z,100522.60
2022-10-21T16:19:50.743Z,100522.20
2022-10-21T16:22:23.977Z,100521.40
2022-10-21T16:24:52.826Z,100523.20
2022-10-21T16:27:26.539Z,100519.20
2022-10-21T16:30:38.741Z,100521.00
2022-10-21T16:33:07.530Z,100515.20
2022-10-21T16:35:36.535Z,100514.40
2022-10-21T16:38:05.107Z,100520.80
2022-10-21T16:40:36.138Z,100519.40
2022-10-21T16:43:05.369Z,100519.20
2022-10-21T16:45:34.502Z,100521.40
2022-10-21T16:48:05.705Z,100523.20
2022-10-21T16:50:46.208Z,100525.80
2022-10-21T16:53:17.765Z,100541.40
2022-10-21T16:55:46.394Z,100543.60
2022-10-21T16:58:15.498Z,100542.40
2022-10-21T17:00:46.165Z,100542.00
2022-10-21T17:03:15.220Z,100552.60
2022-10-21T17:05:43.704Z,100551.20
2022-10-21T17:08:12.497Z,100556.80
2022-10-21T17:10:41.292Z,100556.60
2022-10-21T17:13:12.689Z,100560.80
2022-10-21T17:15:41.896Z,100562.00
2022-10-21T17:18:13.259Z,100565.60
2022-10-21T17:20:44.731Z,100565.60
2022-10-21T17:23:14.073Z,100569.60
2022-10-21T17:25:43.051Z,100565.40
2022-10-21T17:28:11.918Z,100571.20
2022-10-21T17:30:40.679Z,100571.20
2022-10-21T17:33:14.113Z,100568.60
2022-10-21T17:35:43.405Z,100569.80
2022-10-21T17:38:12.197Z,100569.80
2022-10-21T17:40:40.787Z,100570.20
2022-10-21T17:43:09.989Z,100567.00
2022-10-21T17:45:39.219Z,100568.60
2022-10-21T17:48:07.865Z,100567.00
2022-10-21T17:50:39.164Z,100580.00
2022-10-21T17:53:08.004Z,100576.60
2022-10-21T17:55:36.717Z,100575.20
2022-10-21T17:58:06.104Z,100572.40
2022-10-21T18:00:34.682Z,100565.80
2022-10-21T18:03:03.367Z,100568.60
2022-10-21T18:05:32.375Z,100569.60
2022-10-21T18:08:01.358Z,100578.60
2022-10-21T18:10:30.149Z,100573.60
2022-10-21T18:12:58.931Z,100568.00
2022-10-21T18:15:28.847Z,100567.40
2022-10-21T18:17:57.848Z,100565.60
2022-10-21T18:20:27.039Z,100562.80
2022-10-21T18:22:55.726Z,100563.80
2022-10-21T18:25:24.207Z,100559.20
2022-10-21T18:27:52.949Z,100561.00
2022-10-21T18:30:22.195Z,100555.40
2022-10-21T18:32:50.782Z,100558.00
2022-10-21T18:35:20.294Z,100558.60
2022-10-21T18:37:48.870Z,100558.20
2022-10-21T18:40:17.455Z,100561.20
2022-10-21T18:42:45.936Z,100554.60
2022-10-21T18:45:14.522Z,100550.80
2022-10-21T18:47:47.513Z,100550.00
2022-10-21T18:50:16.666Z,100551.20
2022-10-21T18:52:45.192Z,100554.40
2022-10-21T18:55:13.673Z,100553.60
2022-10-21T18:57:42.556Z,100557.80
2022-10-21T19:00:12.261Z,100561.00
2022-10-21T19:02:40.760Z,100559.00
2022-10-21T19:05:09.340Z,100560.00
2022-10-21T19:07:38.310Z,100557.40
2022-10-21T19:10:07.863Z,100559.40
2022-10-21T19:12:36.534Z,100558.80
2022-10-21T19:15:06.129Z,100560.00
2022-10-21T19:17:34.926Z,100565.00
2022-10-21T19:20:04.090Z,100564.20
2022-10-21T19:22:32.608Z,100562.00
2022-10-21T19:25:01.090Z,100563.60
2022-10-21T19:27:29.573Z,100565.40
2022-10-21T19:29:57.950Z,100559.80
2022-10-21T19:32:26.330Z,100558.20
2022-10-21T19:34:55.018Z,100568.80
2022-10-21T19:37:23.498Z,100570.20
2022-10-21T19:39:51.980Z,100575.00
2022-10-21T19:42:20.566Z,100579.00
2022-10-21T19:44:49.148Z,100581.00
2022-10-21T19:47:17.630Z,100589.60
2022-10-21T19:49:46.215Z,100573.40
2022-10-21T19:52:14.801Z,100573.60
2022-10-21T19:54:43.384Z,100574.80
2022-10-21T19:57:11.868Z,100573.80
2022-10-21T19:59:40.928Z,100571.40
2022-10-21T20:02:11.727Z,100574.60
2022-10-21T20:04:40.486Z,100577.20
2022-10-21T20:07:08.969Z,100584.40
2022-10-21T20:09:38.989Z,100589.40
2022-10-21T20:12:08.131Z,100595.60
2022-10-21T20:14:37.694Z,100595.60
2022-10-21T20:17:06.480Z,100596.40
2022-10-21T20:19:35.521Z,100602.00
2022-10-21T20:22:04.503Z,100597.00
2022-10-21T20:24:33.667Z,100602.80
2022-10-21T20:27:02.487Z,100602.60
2022-10-21T20:29:31.717Z,100605.80
2022-10-21T20:32:01.674Z,100605.60
2022-10-21T20:34:33.960Z,100602.40
2022-10-21T20:37:05.932Z,100602.40
2022-10-21T20:39:35.093Z,100595.60
2022-10-21T20:42:04.218Z,100595.00
2022-10-21T20:44:32.704Z,100595.40
2022-10-21T20:47:01.169Z,100587.40
2022-10-21T20:49:29.551Z,100582.00
2022-10-21T20:51:58.035Z,100576.00
2022-10-21T20:54:28.563Z,100566.60
2022-10-21T20:56:57.248Z,100559.00
2022-10-21T20:59:26.243Z,100554.40
2022-10-21T21:01:55.374Z,100554.00
2022-10-21T21:04:25.620Z,100557.40
2022-10-21T21:06:55.066Z,100554.40
2022-10-21T21:12:15.895Z,100544.00
2022-10-21T21:14:44.792Z,100548.40
2022-10-21T21:17:13.573Z,100556.60
2022-10-21T21:19:42.880Z,100560.60
2022-10-21T21:22:12.764Z,100561.80
2022-10-21T21:24:42.191Z,100564.00
2022-10-21T21:27:10.992Z,100565.80
2022-10-21T21:29:40.603Z,100572.20
2022-10-21T21:32:09.070Z,100573.60
2022-10-21T21:34:37.756Z,100580.00
2022-10-21T21:37:06.548Z,100590.00
2022-10-21T21:39:35.272Z,100588.40
2022-10-21T21:42:04.431Z,100582.40
2022-10-21T21:44:33.162Z,100579.40
2022-10-21T21:47:01.912Z,100579.00
2022-10-21T21:49:31.238Z,100575.20
2022-10-21T21:52:00.202Z,100571.80
2022-10-21T21:54:28.992Z,100574.80
2022-10-21T21:57:26.327Z,100577.60
2022-10-21T21:59:48.397Z,100574.80
2022-10-21T22:02:16.965Z,100576.00
2022-10-21T22:04:46.320Z,100574.20
2022-10-21T22:07:15.063Z,100565.60
2022-10-21T22:09:44.255Z,100561.80
2022-10-21T22:12:15.022Z,100559.80
2022-10-21T22:14:44.496Z,100557.40
2022-10-21T22:17:13.286Z,100550.00
2022-10-21T22:19:41.972Z,100549.80
2022-10-21T22:22:11.990Z,100551.20
2022-10-21T22:24:40.873Z,100552.00
2022-10-21T22:27:09.672Z,100553.60
2022-10-21T22:29:38.869Z,100551.60
2022-10-21T22:32:07.978Z,100546.40
2022-10-21T22:34:36.550Z,100544.20
2022-10-21T22:37:05.543Z,100542.40
2022-10-21T22:39:34.641Z,100544.40
2022-10-21T22:42:04.146Z,100549.40
2022-10-21T22:44:32.628Z,100547.00
2022-10-21T22:47:01.623Z,100549.40
2022-10-21T22:49:30.822Z,100550.80
2022-10-21T22:52:00.037Z,100551.40
2022-10-21T22:54:48.121Z,100550.80
2022-10-21T22:57:18.193Z,100556.60
2022-10-21T22:59:52.039Z,100559.00
2022-10-21T23:02:21.732Z,100559.40
2022-10-21T23:04:51.204Z,100558.20
2022-10-21T23:07:20.404Z,100565.20
2022-10-21T23:09:51.681Z,100568.60
2022-10-21T23:12:20.552Z,100572.60
2022-10-21T23:14:49.433Z,100577.60
2022-10-21T23:17:18.017Z,100573.20
2022-10-21T23:19:46.827Z,100572.00
2022-10-21T23:22:16.518Z,100569.80
2022-10-21T23:24:45.887Z,100575.00
2022-10-21T23:27:15.129Z,100589.40
2022-10-21T23:29:44.011Z,100596.40
2022-10-21T23:32:13.107Z,100590.80
2022-10-21T23:34:41.701Z,100581.60
2022-10-21T23:37:11.354Z,100575.80
2022-10-21T23:39:40.307Z,100584.80
2022-10-21T23:42:09.190Z,100585.80
2022-10-21T23:44:37.669Z,100584.40
2022-10-21T23:47:06.560Z,100574.60
2022-10-21T23:49:35.592Z,100559.60
2022-10-21T23:52:06.393Z,100547.40
2022-10-21T23:54:36.102Z,100543.80
2022-10-21T23:57:04.583Z,100544.80
2022-10-21T23:59:34.743Z,100545.40
